sensor_id;sensor_type;location;lat;lon;timestamp;pressure;altitude;pressure_sealevel;temperature
76394;BMP180;65216;51.090;-115.352;2023-11-22T00:02:18;86923.60;;;22.70
76394;BMP180;65216;51.090;-115.352;2023-11-22T00:04:46;86923.60;;;22.70
76394;BMP180;65216;51.090;-115.352;2023-11-22T00:07:13;86888.60;;;22.70
76394;BMP180;65216;51.090;-115.352;2023-11-22T00:09:40;86879.40;;;22.70
76394;BMP180;65216;51.090;-115.352;2023-11-22T00:12:08;86877.00;;;22.70
76394;BMP180;65216;51.090;-115.352;2023-11-22T00:14:35;86899.00;;;22.70
76394;BMP180;65216;51.090;-115.352;2023-11-22T00:17:02;86901.80;;;22.70
76394;BMP180;65216;51.090;-115.352;2023-11-22T00:19:30;86882.80;;;22.72
76394;BMP180;65216;51.090;-115.352;2023-11-22T00:21:57;86895.00;;;22.78
76394;BMP180;65216;51.090;-115.352;2023-11-22T00:24:24;86889.40;;;22.80
76394;BMP180;65216;51.090;-115.352;2023-11-22T00:26:50;86863.40;;;22.80
76394;BMP180;65216;51.090;-115.352;2023-11-22T00:29:17;86864.60;;;22.80
76394;BMP180;65216;51.090;-115.352;2023-11-22T00:31:44;86883.20;;;22.80
76394;BMP180;65216;51.090;-115.352;2023-11-22T00:34:14;86904.20;;;22.80
76394;BMP180;65216;51.090;-115.352;2023-11-22T00:36:41;86895.80;;;22.80
76394;BMP180;65216;51.090;-115.352;2023-11-22T00:39:08;86920.40;;;22.80
76394;BMP180;65216;51.090;-115.352;2023-11-22T00:41:39;86896.60;;;22.80
76394;BMP180;65216;51.090;-115.352;2023-11-22T00:44:09;86915.60;;;22.78
76394;BMP180;65216;51.090;-115.352;2023-11-22T00:46:36;86896.20;;;22.72
76394;BMP180;65216;51.090;-115.352;2023-11-22T00:49:06;86903.00;;;22.74
76394;BMP180;65216;51.090;-115.352;2023-11-22T00:51:37;86898.40;;;22.70
76394;BMP180;65216;51.090;-115.352;2023-11-22T00:54:04;86909.40;;;22.70
76394;BMP180;65216;51.090;-115.352;2023-11-22T00:56:32;86906.00;;;22.70
76394;BMP180;65216;51.090;-115.352;2023-11-22T00:58:59;86921.40;;;22.70
76394;BMP180;65216;51.090;-115.352;2023-11-22T01:01:28;86908.80;;;22.70
76394;BMP180;65216;51.090;-115.352;2023-11-22T01:03:55;86915.60;;;22.70
76394;BMP180;65216;51.090;-115.352;2023-11-22T01:06:22;86941.20;;;22.70
76394;BMP180;65216;51.090;-115.352;2023-11-22T01:08:49;86951.00;;;22.70
76394;BMP180;65216;51.090;-115.352;2023-11-22T01:11:19;86955.20;;;22.70
76394;BMP180;65216;51.090;-115.352;2023-11-22T01:13:48;86946.00;;;22.70
76394;BMP180;65216;51.090;-115.352;2023-11-22T01:16:15;86953.40;;;22.70
76394;BMP180;65216;51.090;-115.352;2023-11-22T01:18:43;86944.80;;;22.78
76394;BMP180;65216;51.090;-115.352;2023-11-22T01:21:13;86951.80;;;22.78
76394;BMP180;65216;51.090;-115.352;2023-11-22T01:23:43;86966.20;;;22.70
76394;BMP180;65216;51.090;-115.352;2023-11-22T01:26:11;86972.80;;;22.72
76394;BMP180;65216;51.090;-115.352;2023-11-22T01:28:38;86960.20;;;22.80
76394;BMP180;65216;51.090;-115.352;2023-11-22T01:31:12;86957.60;;;22.80
76394;BMP180;65216;51.090;-115.352;2023-11-22T01:33:39;86947.00;;;22.78
76394;BMP180;65216;51.090;-115.352;2023-11-22T01:36:10;86951.20;;;22.70
76394;BMP180;65216;51.090;-115.352;2023-11-22T01:38:36;86975.40;;;22.72
76394;BMP180;65216;51.090;-115.352;2023-11-22T01:41:05;86949.20;;;22.70
76394;BMP180;65216;51.090;-115.352;2023-11-22T01:43:35;86961.20;;;22.70
76394;BMP180;65216;51.090;-115.352;2023-11-22T01:46:06;86964.60;;;22.70
76394;BMP180;65216;51.090;-115.352;2023-11-22T01:48:33;86923.00;;;22.70
76394;BMP180;65216;51.090;-115.352;2023-11-22T01:51:02;86919.80;;;22.70
76394;BMP180;65216;51.090;-115.352;2023-11-22T01:53:29;86918.60;;;22.70
76394;BMP180;65216;51.090;-115.352;2023-11-22T01:55:58;86928.40;;;22.70
76394;BMP180;65216;51.090;-115.352;2023-11-22T01:58:27;86957.40;;;22.70
76394;BMP180;65216;51.090;-115.352;2023-11-22T02:00:54;86945.80;;;22.72
76394;BMP180;65216;51.090;-115.352;2023-11-22T02:03:21;86941.60;;;22.70
76394;BMP180;65216;51.090;-115.352;2023-11-22T02:05:48;86945.60;;;22.70
76394;BMP180;65216;51.090;-115.352;2023-11-22T02:08:16;86949.00;;;22.70
76394;BMP180;65216;51.090;-115.352;2023-11-22T02:10:44;86947.40;;;22.70
76394;BMP180;65216;51.090;-115.352;2023-11-22T02:13:15;86933.80;;;22.70
76394;BMP180;65216;51.090;-115.352;2023-11-22T02:15:42;86941.40;;;22.70
76394;BMP180;65216;51.090;-115.352;2023-11-22T02:18:09;86948.60;;;22.70
76394;BMP180;65216;51.090;-115.352;2023-11-22T02:20:35;86931.40;;;22.70
76394;BMP180;65216;51.090;-115.352;2023-11-22T02:23:09;86960.80;;;22.70
76394;BMP180;65216;51.090;-115.352;2023-11-22T02:25:38;86953.40;;;22.70
76394;BMP180;65216;51.090;-115.352;2023-11-22T02:28:05;86932.80;;;22.70
76394;BMP180;65216;51.090;-115.352;2023-11-22T02:30:35;86935.80;;;22.70
76394;BMP180;65216;51.090;-115.352;2023-11-22T02:33:03;86929.20;;;22.70
76394;BMP180;65216;51.090;-115.352;2023-11-22T02:35:31;86926.20;;;22.70
76394;BMP180;65216;51.090;-115.352;2023-11-22T02:38:01;86944.60;;;22.70
76394;BMP180;65216;51.090;-115.352;2023-11-22T02:40:28;86950.40;;;22.70
76394;BMP180;65216;51.090;-115.352;2023-11-22T02:42:55;86953.80;;;22.70
76394;BMP180;65216;51.090;-115.352;2023-11-22T02:45:28;86959.20;;;22.70
76394;BMP180;65216;51.090;-115.352;2023-11-22T02:47:55;86992.80;;;22.70
76394;BMP180;65216;51.090;-115.352;2023-11-22T02:52:49;86960.40;;;22.70
76394;BMP180;65216;51.090;-115.352;2023-11-22T02:55:16;86972.80;;;22.64
76394;BMP180;65216;51.090;-115.352;2023-11-22T02:57:42;86954.00;;;22.60
76394;BMP180;65216;51.090;-115.352;2023-11-22T03:00:10;86971.00;;;22.60
76394;BMP180;65216;51.090;-115.352;2023-11-22T03:02:40;86981.40;;;22.60
76394;BMP180;65216;51.090;-115.352;2023-11-22T03:05:13;86956.60;;;22.60
76394;BMP180;65216;51.090;-115.352;2023-11-22T03:07:43;86927.80;;;22.60
76394;BMP180;65216;51.090;-115.352;2023-11-22T03:10:13;86924.60;;;22.60
76394;BMP180;65216;51.090;-115.352;2023-11-22T03:12:40;86944.80;;;22.60
76394;BMP180;65216;51.090;-115.352;2023-11-22T03:15:07;86942.40;;;22.58
76394;BMP180;65216;51.090;-115.352;2023-11-22T03:17:38;86947.80;;;22.56
76394;BMP180;65216;51.090;-115.352;2023-11-22T03:20:06;86948.80;;;22.60
76394;BMP180;65216;51.090;-115.352;2023-11-22T03:22:35;86944.40;;;22.60
76394;BMP180;65216;51.090;-115.352;2023-11-22T03:25:03;86927.40;;;22.60
76394;BMP180;65216;51.090;-115.352;2023-11-22T03:27:31;86926.40;;;22.60
76394;BMP180;65216;51.090;-115.352;2023-11-22T03:29:57;86954.60;;;22.60
76394;BMP180;65216;51.090;-115.352;2023-11-22T03:32:24;86925.80;;;22.60
76394;BMP180;65216;51.090;-115.352;2023-11-22T03:34:51;86927.60;;;22.58
76394;BMP180;65216;51.090;-115.352;2023-11-22T03:37:18;86934.80;;;22.52
76394;BMP180;65216;51.090;-115.352;2023-11-22T03:39:45;86934.80;;;22.50
76394;BMP180;65216;51.090;-115.352;2023-11-22T03:42:16;86914.20;;;22.50
76394;BMP180;65216;51.090;-115.352;2023-11-22T03:44:43;86928.20;;;22.50
76394;BMP180;65216;51.090;-115.352;2023-11-22T03:47:11;86894.80;;;22.52
76394;BMP180;65216;51.090;-115.352;2023-11-22T03:49:41;86895.00;;;22.50
76394;BMP180;65216;51.090;-115.352;2023-11-22T03:52:11;86905.40;;;22.50
76394;BMP180;65216;51.090;-115.352;2023-11-22T03:54:38;86915.60;;;22.50
76394;BMP180;65216;51.090;-115.352;2023-11-22T03:57:05;86934.40;;;22.50
76394;BMP180;65216;51.090;-115.352;2023-11-22T03:59:34;86944.40;;;22.50
76394;BMP180;65216;51.090;-115.352;2023-11-22T04:02:01;86906.60;;;22.50
76394;BMP180;65216;51.090;-115.352;2023-11-22T04:04:28;86924.80;;;22.50
76394;BMP180;65216;51.090;-115.352;2023-11-22T04:06:59;86924.00;;;22.50
76394;BMP180;65216;51.090;-115.352;2023-11-22T04:09:29;86924.80;;;22.48
76394;BMP180;65216;51.090;-115.352;2023-11-22T04:11:56;86918.40;;;22.40
76394;BMP180;65216;51.090;-115.352;2023-11-22T04:14:23;86934.00;;;22.40
76394;BMP180;65216;51.090;-115.352;2023-11-22T04:16:49;86937.20;;;22.42
76394;BMP180;65216;51.090;-115.352;2023-11-22T04:19:17;86936.00;;;22.40
76394;BMP180;65216;51.090;-115.352;2023-11-22T04:21:46;86940.80;;;22.40
76394;BMP180;65216;51.090;-115.352;2023-11-22T04:24:13;86946.40;;;22.40
76394;BMP180;65216;51.090;-115.352;2023-11-22T04:26:40;86961.20;;;22.40
76394;BMP180;65216;51.090;-115.352;2023-11-22T04:29:07;86945.20;;;22.40
76394;BMP180;65216;51.090;-115.352;2023-11-22T04:31:34;86932.80;;;22.40
76394;BMP180;65216;51.090;-115.352;2023-11-22T04:34:00;86941.60;;;22.40
76394;BMP180;65216;51.090;-115.352;2023-11-22T04:36:28;86949.60;;;22.40
76394;BMP180;65216;51.090;-115.352;2023-11-22T04:38:55;86933.20;;;22.40
76394;BMP180;65216;51.090;-115.352;2023-11-22T04:41:22;86939.40;;;22.40
76394;BMP180;65216;51.090;-115.352;2023-11-22T04:43:51;86960.20;;;22.40
76394;BMP180;65216;51.090;-115.352;2023-11-22T04:46:18;86931.00;;;22.40
76394;BMP180;65216;51.090;-115.352;2023-11-22T04:48:47;86952.00;;;22.40
76394;BMP180;65216;51.090;-115.352;2023-11-22T04:51:17;86943.00;;;22.40
76394;BMP180;65216;51.090;-115.352;2023-11-22T04:53:44;86946.60;;;22.40
76394;BMP180;65216;51.090;-115.352;2023-11-22T04:56:14;86948.40;;;22.40
76394;BMP180;65216;51.090;-115.352;2023-11-22T04:58:41;86939.60;;;22.36
76394;BMP180;65216;51.090;-115.352;2023-11-22T05:01:10;86950.00;;;22.32
76394;BMP180;65216;51.090;-115.352;2023-11-22T05:03:37;86948.20;;;22.30
76394;BMP180;65216;51.090;-115.352;2023-11-22T05:06:05;86955.60;;;22.30
76394;BMP180;65216;51.090;-115.352;2023-11-22T05:08:33;86942.40;;;22.30
76394;BMP180;65216;51.090;-115.352;2023-11-22T05:11:00;86952.40;;;22.30
76394;BMP180;65216;51.090;-115.352;2023-11-22T05:13:27;86949.00;;;22.30
76394;BMP180;65216;51.090;-115.352;2023-11-22T05:15:54;86964.00;;;22.30
76394;BMP180;65216;51.090;-115.352;2023-11-22T05:18:24;86954.60;;;22.30
76394;BMP180;65216;51.090;-115.352;2023-11-22T05:20:51;86938.40;;;22.30
76394;BMP180;65216;51.090;-115.352;2023-11-22T05:23:20;86933.00;;;22.24
76394;BMP180;65216;51.090;-115.352;2023-11-22T05:25:48;86924.80;;;22.20
76394;BMP180;65216;51.090;-115.352;2023-11-22T05:28:16;86942.40;;;22.20
76394;BMP180;65216;51.090;-115.352;2023-11-22T05:30:43;86960.60;;;22.20
76394;BMP180;65216;51.090;-115.352;2023-11-22T05:33:10;86955.20;;;22.20
76394;BMP180;65216;51.090;-115.352;2023-11-22T05:35:37;86945.80;;;22.20
76394;BMP180;65216;51.090;-115.352;2023-11-22T05:38:07;86947.80;;;22.20
76394;BMP180;65216;51.090;-115.352;2023-11-22T05:40:36;86961.40;;;22.20
76394;BMP180;65216;51.090;-115.352;2023-11-22T05:43:05;86958.80;;;22.20
76394;BMP180;65216;51.090;-115.352;2023-11-22T05:45:35;86950.60;;;22.20
76394;BMP180;65216;51.090;-115.352;2023-11-22T05:48:02;86958.00;;;22.20
76394;BMP180;65216;51.090;-115.352;2023-11-22T05:50:29;86949.00;;;22.20
76394;BMP180;65216;51.090;-115.352;2023-11-22T05:52:55;86957.60;;;22.14
76394;BMP180;65216;51.090;-115.352;2023-11-22T05:55:23;86952.80;;;22.10
76394;BMP180;65216;51.090;-115.352;2023-11-22T05:57:49;86964.20;;;22.12
76394;BMP180;65216;51.090;-115.352;2023-11-22T06:00:16;86946.00;;;22.16
76394;BMP180;65216;51.090;-115.352;2023-11-22T06:02:44;86952.40;;;22.18
76394;BMP180;65216;51.090;-115.352;2023-11-22T06:05:10;86965.40;;;22.14
76394;BMP180;65216;51.090;-115.352;2023-11-22T06:07:37;86970.60;;;22.16
76394;BMP180;65216;51.090;-115.352;2023-11-22T06:10:04;86968.80;;;22.12
76394;BMP180;65216;51.090;-115.352;2023-11-22T06:12:32;86970.60;;;22.10
76394;BMP180;65216;51.090;-115.352;2023-11-22T06:14:58;86963.80;;;22.10
76394;BMP180;65216;51.090;-115.352;2023-11-22T06:17:27;86949.80;;;22.10
76394;BMP180;65216;51.090;-115.352;2023-11-22T06:19:56;86965.80;;;22.10
76394;BMP180;65216;51.090;-115.352;2023-11-22T06:22:23;86953.60;;;22.10
76394;BMP180;65216;51.090;-115.352;2023-11-22T06:24:50;86950.40;;;22.10
76394;BMP180;65216;51.090;-115.352;2023-11-22T06:27:16;86949.00;;;22.10
76394;BMP180;65216;51.090;-115.352;2023-11-22T06:29:43;86961.20;;;22.10
76394;BMP180;65216;51.090;-115.352;2023-11-22T06:32:10;86968.20;;;22.10
76394;BMP180;65216;51.090;-115.352;2023-11-22T06:34:37;86981.20;;;22.10
76394;BMP180;65216;51.090;-115.352;2023-11-22T06:37:04;86983.80;;;22.10
76394;BMP180;65216;51.090;-115.352;2023-11-22T06:39:34;86973.20;;;22.10
76394;BMP180;65216;51.090;-115.352;2023-11-22T06:42:01;86981.20;;;22.10
76394;BMP180;65216;51.090;-115.352;2023-11-22T06:44:28;86986.80;;;22.10
76394;BMP180;65216;51.090;-115.352;2023-11-22T06:46:55;86983.00;;;22.10
76394;BMP180;65216;51.090;-115.352;2023-11-22T06:49:23;86998.80;;;22.10
76394;BMP180;65216;51.090;-115.352;2023-11-22T06:51:50;86980.00;;;22.10
76394;BMP180;65216;51.090;-115.352;2023-11-22T06:54:20;86980.40;;;22.10
76394;BMP180;65216;51.090;-115.352;2023-11-22T06:56:48;86993.00;;;22.10
76394;BMP180;65216;51.090;-115.352;2023-11-22T06:59:18;86988.80;;;22.10
76394;BMP180;65216;51.090;-115.352;2023-11-22T07:01:45;86989.40;;;22.10
76394;BMP180;65216;51.090;-115.352;2023-11-22T07:04:14;87001.00;;;22.10
76394;BMP180;65216;51.090;-115.352;2023-11-22T07:06:41;87001.40;;;22.10
76394;BMP180;65216;51.090;-115.352;2023-11-22T07:09:09;87001.80;;;22.10
76394;BMP180;65216;51.090;-115.352;2023-11-22T07:11:36;86989.80;;;22.10
76394;BMP180;65216;51.090;-115.352;2023-11-22T07:14:03;86989.20;;;22.10
76394;BMP180;65216;51.090;-115.352;2023-11-22T07:16:31;86995.20;;;22.10
76394;BMP180;65216;51.090;-115.352;2023-11-22T07:19:00;86998.00;;;22.10
76394;BMP180;65216;51.090;-115.352;2023-11-22T07:21:33;86980.20;;;22.10
76394;BMP180;65216;51.090;-115.352;2023-11-22T07:24:05;86976.60;;;22.10
76394;BMP180;65216;51.090;-115.352;2023-11-22T07:26:33;86988.60;;;22.10
76394;BMP180;65216;51.090;-115.352;2023-11-22T07:28:59;86983.40;;;22.10
76394;BMP180;65216;51.090;-115.352;2023-11-22T07:31:26;86979.80;;;22.10
76394;BMP180;65216;51.090;-115.352;2023-11-22T07:33:55;86987.80;;;22.10
76394;BMP180;65216;51.090;-115.352;2023-11-22T07:36:22;86995.20;;;22.10
76394;BMP180;65216;51.090;-115.352;2023-11-22T07:38:49;86996.00;;;22.10
76394;BMP180;65216;51.090;-115.352;2023-11-22T07:41:15;87003.40;;;22.10
76394;BMP180;65216;51.090;-115.352;2023-11-22T07:43:42;87003.40;;;22.10
76394;BMP180;65216;51.090;-115.352;2023-11-22T07:46:10;86991.00;;;22.10
76394;BMP180;65216;51.090;-115.352;2023-11-22T07:48:43;86985.00;;;22.10
76394;BMP180;65216;51.090;-115.352;2023-11-22T07:51:11;86989.40;;;22.10
76394;BMP180;65216;51.090;-115.352;2023-11-22T07:53:42;86982.80;;;22.10
76394;BMP180;65216;51.090;-115.352;2023-11-22T07:56:10;86990.40;;;22.10
76394;BMP180;65216;51.090;-115.352;2023-11-22T07:58:38;86986.80;;;22.10
76394;BMP180;65216;51.090;-115.352;2023-11-22T08:01:05;86978.60;;;22.10
76394;BMP180;65216;51.090;-115.352;2023-11-22T08:03:35;86986.40;;;22.10
76394;BMP180;65216;51.090;-115.352;2023-11-22T08:06:03;86974.80;;;22.10
76394;BMP180;65216;51.090;-115.352;2023-11-22T08:08:31;86983.60;;;22.10
76394;BMP180;65216;51.090;-115.352;2023-11-22T08:11:01;86981.00;;;22.10
76394;BMP180;65216;51.090;-115.352;2023-11-22T08:13:28;86982.00;;;22.10
76394;BMP180;65216;51.090;-115.352;2023-11-22T08:15:56;86985.80;;;22.16
76394;BMP180;65216;51.090;-115.352;2023-11-22T08:18:23;86987.20;;;22.20
76394;BMP180;65216;51.090;-115.352;2023-11-22T08:20:50;86989.60;;;22.20
76394;BMP180;65216;51.090;-115.352;2023-11-22T08:23:17;86979.40;;;22.20
76394;BMP180;65216;51.090;-115.352;2023-11-22T08:25:44;86983.20;;;22.20
76394;BMP180;65216;51.090;-115.352;2023-11-22T08:28:11;86991.20;;;22.20
76394;BMP180;65216;51.090;-115.352;2023-11-22T08:30:39;86988.40;;;22.20
76394;BMP180;65216;51.090;-115.352;2023-11-22T08:33:07;86984.20;;;22.20
76394;BMP180;65216;51.090;-115.352;2023-11-22T08:35:34;86986.20;;;22.20
76394;BMP180;65216;51.090;-115.352;2023-11-22T08:38:01;86989.60;;;22.20
76394;BMP180;65216;51.090;-115.352;2023-11-22T08:40:29;86979.60;;;22.20
76394;BMP180;65216;51.090;-115.352;2023-11-22T08:42:56;86980.00;;;22.20
76394;BMP180;65216;51.090;-115.352;2023-11-22T08:45:23;86972.60;;;22.20
76394;BMP180;65216;51.090;-115.352;2023-11-22T08:47:50;86967.80;;;22.20
76394;BMP180;65216;51.090;-115.352;2023-11-22T08:50:17;86971.20;;;22.20
76394;BMP180;65216;51.090;-115.352;2023-11-22T08:52:44;86960.80;;;22.20
76394;BMP180;65216;51.090;-115.352;2023-11-22T08:55:14;86967.80;;;22.20
76394;BMP180;65216;51.090;-115.352;2023-11-22T08:57:41;86964.60;;;22.20
76394;BMP180;65216;51.090;-115.352;2023-11-22T09:00:08;86961.40;;;22.20
76394;BMP180;65216;51.090;-115.352;2023-11-22T09:02:37;86954.80;;;22.20
76394;BMP180;65216;51.090;-115.352;2023-11-22T09:05:07;86952.20;;;22.20
76394;BMP180;65216;51.090;-115.352;2023-11-22T09:07:37;86939.20;;;22.20
76394;BMP180;65216;51.090;-115.352;2023-11-22T09:10:06;86941.00;;;22.20
76394;BMP180;65216;51.090;-115.352;2023-11-22T09:12:38;86924.00;;;22.20
76394;BMP180;65216;51.090;-115.352;2023-11-22T09:15:10;86939.20;;;22.20
76394;BMP180;65216;51.090;-115.352;2023-11-22T09:17:42;86937.60;;;22.20
76394;BMP180;65216;51.090;-115.352;2023-11-22T09:20:16;86933.40;;;22.20
76394;BMP180;65216;51.090;-115.352;2023-11-22T09:25:26;86940.00;;;22.20
76394;BMP180;65216;51.090;-115.352;2023-11-22T09:27:56;86944.60;;;22.20
76394;BMP180;65216;51.090;-115.352;2023-11-22T09:30:33;86952.00;;;22.20
76394;BMP180;65216;51.090;-115.352;2023-11-22T09:33:14;86954.60;;;22.20
76394;BMP180;65216;51.090;-115.352;2023-11-22T09:35:45;86951.60;;;22.20
76394;BMP180;65216;51.090;-115.352;2023-11-22T09:38:13;86951.20;;;22.20
76394;BMP180;65216;51.090;-115.352;2023-11-22T09:40:46;86949.00;;;22.20
76394;BMP180;65216;51.090;-115.352;2023-11-22T09:43:15;86957.20;;;22.20
76394;BMP180;65216;51.090;-115.352;2023-11-22T09:45:51;86967.80;;;22.20
76394;BMP180;65216;51.090;-115.352;2023-11-22T09:48:24;86969.20;;;22.20
76394;BMP180;65216;51.090;-115.352;2023-11-22T09:56:11;86974.20;;;22.20
76394;BMP180;65216;51.090;-115.352;2023-11-22T09:58:45;86976.80;;;22.20
76394;BMP180;65216;51.090;-115.352;2023-11-22T10:01:14;86972.80;;;22.20
76394;BMP180;65216;51.090;-115.352;2023-11-22T10:03:45;86975.40;;;22.20
76394;BMP180;65216;51.090;-115.352;2023-11-22T10:06:12;86969.00;;;22.20
76394;BMP180;65216;51.090;-115.352;2023-11-22T10:08:41;86978.20;;;22.20
76394;BMP180;65216;51.090;-115.352;2023-11-22T10:11:09;86991.40;;;22.20
76394;BMP180;65216;51.090;-115.352;2023-11-22T10:13:35;86986.00;;;22.20
76394;BMP180;65216;51.090;-115.352;2023-11-22T10:16:13;86980.40;;;22.20
76394;BMP180;65216;51.090;-115.352;2023-11-22T10:18:49;86989.00;;;22.20
76394;BMP180;65216;51.090;-115.352;2023-11-22T10:21:29;87000.00;;;22.20
76394;BMP180;65216;51.090;-115.352;2023-11-22T10:23:59;86992.80;;;22.20
76394;BMP180;65216;51.090;-115.352;2023-11-22T10:26:27;86983.20;;;22.20
76394;BMP180;65216;51.090;-115.352;2023-11-22T10:28:58;86978.60;;;22.20
76394;BMP180;65216;51.090;-115.352;2023-11-22T10:31:27;86983.60;;;22.20
76394;BMP180;65216;51.090;-115.352;2023-11-22T10:33:55;86991.20;;;22.20
76394;BMP180;65216;51.090;-115.352;2023-11-22T10:36:27;86988.40;;;22.20
76394;BMP180;65216;51.090;-115.352;2023-11-22T10:38:55;86994.20;;;22.20
76394;BMP180;65216;51.090;-115.352;2023-11-22T10:41:24;86989.60;;;22.20
76394;BMP180;65216;51.090;-115.352;2023-11-22T10:43:52;86982.60;;;22.20
76394;BMP180;65216;51.090;-115.352;2023-11-22T10:46:28;86989.40;;;22.20
76394;BMP180;65216;51.090;-115.352;2023-11-22T10:48:55;86991.00;;;22.20
76394;BMP180;65216;51.090;-115.352;2023-11-22T10:51:33;86985.60;;;22.20
76394;BMP180;65216;51.090;-115.352;2023-11-22T10:54:01;86982.00;;;22.20
76394;BMP180;65216;51.090;-115.352;2023-11-22T10:56:39;86976.80;;;22.20
76394;BMP180;65216;51.090;-115.352;2023-11-22T10:59:14;86969.80;;;22.20
76394;BMP180;65216;51.090;-115.352;2023-11-22T11:01:45;86976.00;;;22.20
76394;BMP180;65216;51.090;-115.352;2023-11-22T11:04:29;86976.80;;;22.20
76394;BMP180;65216;51.090;-115.352;2023-11-22T11:07:03;86974.00;;;22.20
76394;BMP180;65216;51.090;-115.352;2023-11-22T11:09:33;86971.80;;;22.20
76394;BMP180;65216;51.090;-115.352;2023-11-22T11:12:01;86973.80;;;22.20
76394;BMP180;65216;51.090;-115.352;2023-11-22T11:14:32;86969.80;;;22.20
76394;BMP180;65216;51.090;-115.352;2023-11-22T11:16:58;86966.40;;;22.20
76394;BMP180;65216;51.090;-115.352;2023-11-22T11:19:26;86963.20;;;22.20
76394;BMP180;65216;51.090;-115.352;2023-11-22T11:21:55;86969.00;;;22.20
76394;BMP180;65216;51.090;-115.352;2023-11-22T11:24:24;86970.00;;;22.20
76394;BMP180;65216;51.090;-115.352;2023-11-22T11:26:53;86973.40;;;22.20
76394;BMP180;65216;51.090;-115.352;2023-11-22T11:29:31;86972.20;;;22.20
76394;BMP180;65216;51.090;-115.352;2023-11-22T11:31:58;86978.60;;;22.20
76394;BMP180;65216;51.090;-115.352;2023-11-22T11:34:25;86980.80;;;22.20
76394;BMP180;65216;51.090;-115.352;2023-11-22T11:36:56;86981.00;;;22.20
76394;BMP180;65216;51.090;-115.352;2023-11-22T11:39:30;86988.40;;;22.20
76394;BMP180;65216;51.090;-115.352;2023-11-22T11:42:13;86993.60;;;22.20
76394;BMP180;65216;51.090;-115.352;2023-11-22T11:47:19;86987.60;;;22.20
76394;BMP180;65216;51.090;-115.352;2023-11-22T11:49:49;86987.60;;;22.20
76394;BMP180;65216;51.090;-115.352;2023-11-22T11:52:18;86979.80;;;22.20
76394;BMP180;65216;51.090;-115.352;2023-11-22T11:54:44;86973.60;;;22.16
76394;BMP180;65216;51.090;-115.352;2023-11-22T11:57:11;86977.40;;;22.20
76394;BMP180;65216;51.090;-115.352;2023-11-22T11:59:44;86983.00;;;22.20
76394;BMP180;65216;51.090;-115.352;2023-11-22T12:02:12;86970.60;;;22.20
76394;BMP180;65216;51.090;-115.352;2023-11-22T12:04:39;86967.80;;;22.20
76394;BMP180;65216;51.090;-115.352;2023-11-22T12:07:08;86960.40;;;22.16
76394;BMP180;65216;51.090;-115.352;2023-11-22T12:09:38;86960.80;;;22.10
76394;BMP180;65216;51.090;-115.352;2023-11-22T12:12:05;86968.40;;;22.12
76394;BMP180;65216;51.090;-115.352;2023-11-22T12:14:35;86977.40;;;22.10
76394;BMP180;65216;51.090;-115.352;2023-11-22T12:17:04;86975.80;;;22.10
76394;BMP180;65216;51.090;-115.352;2023-11-22T12:19:35;86973.00;;;22.10
76394;BMP180;65216;51.090;-115.352;2023-11-22T12:22:05;86972.00;;;22.10
76394;BMP180;65216;51.090;-115.352;2023-11-22T12:24:34;86973.00;;;22.10
76394;BMP180;65216;51.090;-115.352;2023-11-22T12:27:01;86957.80;;;22.10
76394;BMP180;65216;51.090;-115.352;2023-11-22T12:29:29;86965.00;;;22.10
76394;BMP180;65216;51.090;-115.352;2023-11-22T12:31:55;86975.00;;;22.02
76394;BMP180;65216;51.090;-115.352;2023-11-22T12:34:23;86979.60;;;22.00
76394;BMP180;65216;51.090;-115.352;2023-11-22T12:36:52;86969.60;;;22.00
76394;BMP180;65216;51.090;-115.352;2023-11-22T12:39:21;86964.80;;;22.00
76394;BMP180;65216;51.090;-115.352;2023-11-22T12:41:51;86981.80;;;22.00
76394;BMP180;65216;51.090;-115.352;2023-11-22T12:44:18;86994.20;;;22.00
76394;BMP180;65216;51.090;-115.352;2023-11-22T12:46:51;86969.40;;;22.00
76394;BMP180;65216;51.090;-115.352;2023-11-22T12:49:24;86962.00;;;22.00
76394;BMP180;65216;51.090;-115.352;2023-11-22T12:51:53;86965.60;;;22.00
76394;BMP180;65216;51.090;-115.352;2023-11-22T12:54:21;86979.40;;;22.00
76394;BMP180;65216;51.090;-115.352;2023-11-22T12:56:53;86983.60;;;22.00
76394;BMP180;65216;51.090;-115.352;2023-11-22T12:59:28;86981.40;;;22.00
76394;BMP180;65216;51.090;-115.352;2023-11-22T13:01:56;86977.60;;;21.98
76394;BMP180;65216;51.090;-115.352;2023-11-22T13:04:24;86984.20;;;22.00
76394;BMP180;65216;51.090;-115.352;2023-11-22T13:06:50;87003.00;;;21.98
76394;BMP180;65216;51.090;-115.352;2023-11-22T13:09:18;86997.60;;;21.92
76394;BMP180;65216;51.090;-115.352;2023-11-22T13:11:48;86978.80;;;21.90
76394;BMP180;65216;51.090;-115.352;2023-11-22T13:14:15;86989.40;;;21.90
76394;BMP180;65216;51.090;-115.352;2023-11-22T13:16:42;86990.20;;;21.90
76394;BMP180;65216;51.090;-115.352;2023-11-22T13:19:11;86991.60;;;21.90
76394;BMP180;65216;51.090;-115.352;2023-11-22T13:21:38;86992.40;;;21.90
76394;BMP180;65216;51.090;-115.352;2023-11-22T13:24:07;86992.80;;;21.90
76394;BMP180;65216;51.090;-115.352;2023-11-22T13:26:36;86984.60;;;21.90
76394;BMP180;65216;51.090;-115.352;2023-11-22T13:29:03;86971.60;;;21.90
76394;BMP180;65216;51.090;-115.352;2023-11-22T13:31:30;86960.20;;;21.90
76394;BMP180;65216;51.090;-115.352;2023-11-22T13:33:59;86964.60;;;21.90
76394;BMP180;65216;51.090;-115.352;2023-11-22T13:36:26;86964.60;;;21.88
76394;BMP180;65216;51.090;-115.352;2023-11-22T13:38:54;86972.00;;;21.82
76394;BMP180;65216;51.090;-115.352;2023-11-22T13:41:22;86977.20;;;21.88
76394;BMP180;65216;51.090;-115.352;2023-11-22T13:43:51;86974.40;;;21.80
76394;BMP180;65216;51.090;-115.352;2023-11-22T13:46:17;86972.00;;;21.80
76394;BMP180;65216;51.090;-115.352;2023-11-22T13:48:44;86980.60;;;21.88
76394;BMP180;65216;51.090;-115.352;2023-11-22T13:51:14;86962.60;;;21.90
76394;BMP180;65216;51.090;-115.352;2023-11-22T13:53:40;86960.80;;;21.86